VTK605 UHMM-UHOO

Flight info

Callsign VTK605
Flight time 1h 13m
Altitude 18000
Route BANOT G369 SOTEL
Aircraft C414/L-SBDFGRY/S

Departure

Time 2026-04-27 16:47
Airport Sokol Airport (UHMM)

Arrival

Time 2026-04-27 18:00
Airport Okhotsk Airport (UHOO)
Time Latitude Longitude Altitude Speed Heading
2026-04-27 16:38 59.91293 150.72941 577 ft 0 kts
2026-04-27 16:44 59.91323 150.72906 577 ft 11 kts 275°
2026-04-27 16:45 59.91299 150.72731 577 ft 11 kts 242°
2026-04-27 16:45 59.91236 150.72684 577 ft 13 kts 181°
2026-04-27 16:45 59.91131 150.72675 578 ft 18 kts 181°
2026-04-27 16:45 59.91075 150.72806 579 ft 20 kts 89°
2026-04-27 16:46 59.91061 150.73409 578 ft 70 kts 93°
2026-04-27 16:46 59.91025 150.74667 597 ft 106 kts 92°
2026-04-27 16:46 59.91015 150.76168 816 ft 113 kts 88°
2026-04-27 16:46 59.90996 150.77776 991 ft 117 kts 95°
2026-04-27 16:47 59.90940 150.79435 1162 ft 126 kts 91°
2026-04-27 16:47 59.90898 150.81245 1343 ft 135 kts 92°
2026-04-27 16:47 59.90845 150.83158 1537 ft 141 kts 91°
2026-04-27 16:47 59.90786 150.85145 1750 ft 145 kts 91°
2026-04-27 16:48 59.90725 150.87165 1961 ft 147 kts 91°
2026-04-27 16:48 59.90663 150.89211 2225 ft 146 kts 92°
2026-04-27 16:48 59.90599 150.91315 2262 ft 158 kts 92°
2026-04-27 16:49 59.90461 150.95725 2763 ft 159 kts 93°
2026-04-27 16:49 59.90336 150.97918 3073 ft 161 kts 109°
2026-04-27 16:49 59.89580 150.99493 3395 ft 163 kts 159°
2026-04-27 16:49 59.88465 150.99496 3705 ft 164 kts 200°
2026-04-27 16:50 59.87611 150.98076 4031 ft 162 kts 242°
2026-04-27 16:50 59.87319 150.95932 4360 ft 161 kts 262°
2026-04-27 16:50 59.87131 150.93723 4709 ft 161 kts 260°
2026-04-27 16:50 59.86915 150.91524 5023 ft 162 kts 260°
2026-04-27 16:51 59.86694 150.89312 5324 ft 164 kts 260°
2026-04-27 16:51 59.86467 150.87064 5624 ft 166 kts 260°
2026-04-27 16:51 59.86237 150.84801 5921 ft 168 kts 260°
2026-04-27 16:51 59.86004 150.82519 6218 ft 169 kts 260°
2026-04-27 16:52 59.85769 150.80214 6505 ft 171 kts 260°
2026-04-27 16:52 59.85529 150.77884 6787 ft 172 kts 260°
2026-04-27 16:52 59.85292 150.75570 7070 ft 173 kts 260°
2026-04-27 16:52 59.85045 150.73181 7357 ft 175 kts 260°
2026-04-27 16:53 59.84884 150.71609 7539 ft 176 kts 260°
2026-04-27 16:53 59.84557 150.68421 7919 ft 178 kts 260°
2026-04-27 16:53 59.84305 150.66001 8219 ft 179 kts 260°
2026-04-27 16:53 59.84052 150.63562 8509 ft 180 kts 260°
2026-04-27 16:54 59.83799 150.61122 8788 ft 181 kts 260°
2026-04-27 16:54 59.83627 150.59467 8981 ft 181 kts 260°
2026-04-27 16:54 59.83371 150.57003 9274 ft 182 kts 260°
2026-04-27 16:54 59.83112 150.54524 9563 ft 183 kts 260°
2026-04-27 16:55 59.82852 150.52040 9857 ft 184 kts 260°
2026-04-27 16:55 59.82591 150.49543 10124 ft 185 kts 260°
2026-04-27 16:55 59.82328 150.47041 10380 ft 186 kts 260°
2026-04-27 16:55 59.82066 150.44545 10618 ft 187 kts 260°
2026-04-27 16:56 59.81798 150.42008 10882 ft 188 kts 260°
2026-04-27 16:56 59.81529 150.39463 11144 ft 188 kts 260°
2026-04-27 16:56 59.81260 150.36914 11404 ft 189 kts 260°
2026-04-27 16:56 59.80988 150.34348 11666 ft 190 kts 260°
2026-04-27 16:57 59.80714 150.31774 11926 ft 191 kts 261°
2026-04-27 16:57 59.80439 150.29192 12180 ft 191 kts 261°
2026-04-27 16:57 59.80163 150.26602 12444 ft 192 kts 261°
2026-04-27 16:57 59.79884 150.23998 12703 ft 193 kts 261°
2026-04-27 16:58 59.79605 150.21389 12964 ft 194 kts 261°
2026-04-27 16:58 59.79324 150.18767 13222 ft 194 kts 261°
2026-04-27 16:58 59.79041 150.16135 13486 ft 195 kts 261°
2026-04-27 16:58 59.78756 150.13494 13732 ft 196 kts 261°
2026-04-27 16:59 59.78471 150.10850 13971 ft 197 kts 261°
2026-04-27 16:59 59.78183 150.08190 14197 ft 197 kts 261°
2026-04-27 16:59 59.77893 150.05524 14418 ft 198 kts 261°
2026-04-27 16:59 59.77602 150.02841 14647 ft 199 kts 261°
2026-04-27 17:00 59.77117 149.98377 15013 ft 200 kts 261°
2026-04-27 17:00 59.76720 149.94761 15311 ft 201 kts 261°
2026-04-27 17:00 59.76424 149.92049 15534 ft 201 kts 261°
2026-04-27 17:01 59.76126 149.89333 15764 ft 202 kts 261°
2026-04-27 17:01 59.75826 149.86608 15991 ft 203 kts 261°
2026-04-27 17:01 59.75525 149.83874 16214 ft 203 kts 261°
2026-04-27 17:01 59.75221 149.81129 16440 ft 204 kts 261°
2026-04-27 17:02 59.74917 149.78373 16650 ft 205 kts 261°
2026-04-27 17:02 59.74610 149.75609 16868 ft 206 kts 261°
2026-04-27 17:02 59.74301 149.72828 17096 ft 207 kts 261°
2026-04-27 17:02 59.73990 149.70033 17321 ft 207 kts 261°
2026-04-27 17:03 59.73678 149.67237 17543 ft 208 kts 261°
2026-04-27 17:03 59.73365 149.64436 17762 ft 209 kts 261°
2026-04-27 17:03 59.73049 149.61620 17985 ft 209 kts 261°
2026-04-27 17:03 59.72728 149.58753 18024 ft 218 kts 261°
2026-04-27 17:04 59.72395 149.55776 18034 ft 225 kts 261°
2026-04-27 17:04 59.72049 149.52716 18036 ft 230 kts 261°
2026-04-27 17:04 59.71697 149.49606 18039 ft 233 kts 261°
2026-04-27 17:04 59.71341 149.46466 18036 ft 234 kts 261°
2026-04-27 17:05 59.70985 149.43329 18034 ft 234 kts 261°
2026-04-27 17:05 59.70628 149.40194 18036 ft 234 kts 261°
2026-04-27 17:05 59.70269 149.37050 18036 ft 233 kts 261°
2026-04-27 17:05 59.69911 149.33921 18037 ft 233 kts 261°
2026-04-27 17:06 59.69553 149.30790 18036 ft 233 kts 261°
2026-04-27 17:06 59.69192 149.27659 18036 ft 233 kts 261°
2026-04-27 17:06 59.68832 149.24531 18038 ft 233 kts 261°
2026-04-27 17:06 59.68471 149.21402 18038 ft 233 kts 261°
2026-04-27 17:07 59.68109 149.18272 18042 ft 233 kts 261°
2026-04-27 17:07 59.67751 149.15139 18041 ft 232 kts 262°
2026-04-27 17:07 59.67632 149.11989 18025 ft 229 kts 272°
2026-04-27 17:07 59.67572 149.08833 18026 ft 230 kts 271°
2026-04-27 17:08 59.67498 149.05678 18027 ft 230 kts 271°
2026-04-27 17:08 59.67425 149.02520 18027 ft 230 kts 271°
2026-04-27 17:08 59.67355 148.99391 18030 ft 230 kts 271°
2026-04-27 17:08 59.67282 148.96191 18035 ft 230 kts 271°
2026-04-27 17:09 59.67210 148.93071 18035 ft 229 kts 271°
2026-04-27 17:09 59.67136 148.89876 18036 ft 230 kts 271°
2026-04-27 17:09 59.67061 148.86759 18036 ft 230 kts 271°
2026-04-27 17:09 59.66985 148.83594 18036 ft 230 kts 271°
2026-04-27 17:10 59.66909 148.80437 18034 ft 230 kts 271°
2026-04-27 17:10 59.66832 148.77283 18035 ft 230 kts 271°
2026-04-27 17:10 59.66755 148.74128 18035 ft 230 kts 271°
2026-04-27 17:10 59.66677 148.70967 18036 ft 230 kts 271°
2026-04-27 17:11 59.66597 148.67805 18041 ft 230 kts 271°
2026-04-27 17:11 59.66437 148.61482 18042 ft 231 kts 271°
2026-04-27 17:11 59.66355 148.58310 18045 ft 231 kts 271°
2026-04-27 17:12 59.66188 148.51957 18044 ft 231 kts 271°
2026-04-27 17:12 59.66105 148.48779 18044 ft 231 kts 271°
2026-04-27 17:12 59.66019 148.45599 18044 ft 231 kts 271°
2026-04-27 17:13 59.65933 148.42423 18045 ft 231 kts 271°
2026-04-27 17:13 59.65848 148.39253 18045 ft 230 kts 271°
2026-04-27 17:13 59.65760 148.36090 18047 ft 230 kts 271°
2026-04-27 17:13 59.65672 148.32930 18048 ft 230 kts 271°
2026-04-27 17:14 59.65583 148.29768 18044 ft 230 kts 271°
2026-04-27 17:14 59.65494 148.26610 18044 ft 230 kts 271°
2026-04-27 17:14 59.65404 148.23449 18045 ft 230 kts 271°
2026-04-27 17:14 59.65314 148.20290 18043 ft 230 kts 271°
2026-04-27 17:15 59.65222 148.17140 18045 ft 230 kts 271°
2026-04-27 17:15 59.65131 148.13986 18048 ft 230 kts 271°
2026-04-27 17:15 59.65038 148.10833 18045 ft 230 kts 271°
2026-04-27 17:15 59.64944 148.07677 18041 ft 230 kts 271°
2026-04-27 17:16 59.64849 148.04529 18042 ft 229 kts 271°
2026-04-27 17:16 59.64755 148.01395 18042 ft 229 kts 271°
2026-04-27 17:16 59.64660 147.98251 18044 ft 229 kts 271°
2026-04-27 17:16 59.64564 147.95114 18042 ft 229 kts 271°
2026-04-27 17:17 59.64466 147.91973 18044 ft 229 kts 271°
2026-04-27 17:17 59.64368 147.88824 18045 ft 229 kts 271°
2026-04-27 17:17 59.64270 147.85687 18045 ft 229 kts 271°
2026-04-27 17:18 59.64071 147.79406 18042 ft 229 kts 271°
2026-04-27 17:18 59.63970 147.76264 18042 ft 229 kts 271°
2026-04-27 17:18 59.63869 147.73127 18042 ft 229 kts 270°
2026-04-27 17:18 59.63766 147.69980 18043 ft 229 kts 270°
2026-04-27 17:19 59.63662 147.66833 18043 ft 229 kts 270°
2026-04-27 17:19 59.63560 147.63735 18045 ft 229 kts 271°
2026-04-27 17:19 59.63456 147.60603 18044 ft 228 kts 271°
2026-04-27 17:19 59.63351 147.57469 18044 ft 228 kts 271°
2026-04-27 17:20 59.63244 147.54327 18044 ft 229 kts 271°
2026-04-27 17:20 59.63138 147.51187 18041 ft 229 kts 271°
2026-04-27 17:20 59.63031 147.48057 18041 ft 229 kts 271°
2026-04-27 17:20 59.62923 147.44923 18041 ft 229 kts 271°
2026-04-27 17:21 59.62814 147.41791 18042 ft 228 kts 271°
2026-04-27 17:21 59.62705 147.38656 18042 ft 229 kts 271°
2026-04-27 17:21 59.62594 147.35520 18043 ft 229 kts 271°
2026-04-27 17:21 59.62483 147.32383 18043 ft 229 kts 271°
2026-04-27 17:22 59.62371 147.29235 18044 ft 229 kts 270°
2026-04-27 17:22 59.62257 147.26101 18044 ft 229 kts 270°
2026-04-27 17:22 59.62144 147.22970 18045 ft 229 kts 270°
2026-04-27 17:22 59.62030 147.19824 18042 ft 229 kts 270°
2026-04-27 17:23 59.61915 147.16684 18042 ft 229 kts 270°
2026-04-27 17:23 59.61800 147.13588 18041 ft 229 kts 270°
2026-04-27 17:23 59.61682 147.10410 18041 ft 229 kts 270°
2026-04-27 17:23 59.61565 147.07276 18041 ft 229 kts 270°
2026-04-27 17:24 59.61448 147.04146 18041 ft 229 kts 270°
2026-04-27 17:24 59.61329 147.01015 18041 ft 229 kts 270°
2026-04-27 17:24 59.61210 146.97880 18041 ft 229 kts 270°
2026-04-27 17:24 59.61089 146.94752 18041 ft 229 kts 270°
2026-04-27 17:25 59.60968 146.91622 18042 ft 228 kts 270°
2026-04-27 17:25 59.60847 146.88493 18041 ft 229 kts 270°
2026-04-27 17:25 59.60725 146.85361 18041 ft 229 kts 270°
2026-04-27 17:25 59.60603 146.82265 18042 ft 229 kts 270°
2026-04-27 17:26 59.60478 146.79090 18039 ft 229 kts 270°
2026-04-27 17:26 59.60352 146.75946 18041 ft 229 kts 270°
2026-04-27 17:26 59.60228 146.72859 18041 ft 229 kts 270°
2026-04-27 17:26 59.60102 146.69716 18042 ft 229 kts 270°
2026-04-27 17:27 59.59974 146.66579 18042 ft 229 kts 270°
2026-04-27 17:27 59.59847 146.63444 18044 ft 229 kts 270°
2026-04-27 17:27 59.59719 146.60311 18044 ft 229 kts 270°
2026-04-27 17:27 59.59589 146.57172 18044 ft 229 kts 270°
2026-04-27 17:28 59.59459 146.54043 18047 ft 229 kts 270°
2026-04-27 17:28 59.59328 146.50906 18047 ft 229 kts 270°
2026-04-27 17:28 59.59065 146.44648 18048 ft 229 kts 270°
2026-04-27 17:29 59.58932 146.41512 18047 ft 229 kts 270°
2026-04-27 17:29 59.58798 146.38383 18048 ft 229 kts 270°
2026-04-27 17:29 59.58664 146.35248 18048 ft 229 kts 270°
2026-04-27 17:29 59.58529 146.32115 18050 ft 229 kts 270°
2026-04-27 17:30 59.58392 146.28976 18047 ft 229 kts 270°
2026-04-27 17:30 59.58118 146.22708 18047 ft 229 kts 270°
2026-04-27 17:30 59.57979 146.19568 18053 ft 229 kts 270°
2026-04-27 17:31 59.57840 146.16434 18051 ft 230 kts 270°
2026-04-27 17:31 59.57743 146.14361 18023 ft 231 kts 269°
2026-04-27 17:31 59.57593 146.11220 18044 ft 230 kts 269°
2026-04-27 17:31 59.57394 146.07065 18047 ft 229 kts 269°
2026-04-27 17:32 59.57292 146.04954 18048 ft 229 kts 269°
2026-04-27 17:32 59.56941 145.97667 18048 ft 229 kts 269°
2026-04-27 17:32 59.56838 145.95554 18048 ft 229 kts 269°
2026-04-27 17:33 59.56669 145.92436 18070 ft 229 kts 268°
2026-04-27 17:33 59.56490 145.89457 18576 ft 207 kts 268°
2026-04-27 17:33 59.56302 145.86652 18691 ft 210 kts 266°
2026-04-27 17:33 59.56102 145.83934 19143 ft 195 kts 268°
2026-04-27 17:34 59.55894 145.81434 19696 ft 173 kts 263°
2026-04-27 17:34 59.55569 145.79425 20314 ft 153 kts 261°
2026-04-27 17:34 59.55325 145.76941 19591 ft 209 kts 270°
2026-04-27 17:34 59.55207 145.73959 19315 ft 226 kts 271°
2026-04-27 17:35 59.55101 145.70763 18940 ft 241 kts 271°
2026-04-27 17:35 59.55222 145.67572 18982 ft 231 kts 284°
2026-04-27 17:35 59.55465 145.64361 18616 ft 244 kts 278°
2026-04-27 17:35 59.55440 145.60935 18230 ft 255 kts 268°
2026-04-27 17:36 59.55217 145.57477 18064 ft 250 kts 266°
2026-04-27 17:36 59.55025 145.54125 18066 ft 242 kts 269°
2026-04-27 17:36 59.54887 145.50849 18063 ft 238 kts 269°
2026-04-27 17:36 59.54748 145.47624 18053 ft 235 kts 269°
2026-04-27 17:37 59.54599 145.44425 18045 ft 232 kts 269°
2026-04-27 17:37 59.54450 145.41275 18045 ft 230 kts 269°
2026-04-27 17:37 59.54306 145.38150 18049 ft 228 kts 269°
2026-04-27 17:37 59.54162 145.35043 18049 ft 227 kts 269°
2026-04-27 17:38 59.54015 145.31942 18047 ft 227 kts 269°
2026-04-27 17:38 59.53867 145.28835 18043 ft 227 kts 269°
2026-04-27 17:38 59.53720 145.25739 18044 ft 227 kts 269°
2026-04-27 17:38 59.53574 145.22651 18046 ft 226 kts 269°
2026-04-27 17:39 59.53424 145.19557 18047 ft 226 kts 269°
2026-04-27 17:39 59.53275 145.16467 18049 ft 227 kts 269°
2026-04-27 17:39 59.53124 145.13361 18047 ft 227 kts 269°
2026-04-27 17:39 59.52970 145.10256 18049 ft 228 kts 269°
2026-04-27 17:40 59.52820 145.07155 18048 ft 227 kts 269°
2026-04-27 17:40 59.52668 145.04056 18046 ft 227 kts 269°
2026-04-27 17:40 59.52515 145.00965 18047 ft 227 kts 269°
2026-04-27 17:40 59.52360 144.97877 18049 ft 227 kts 269°
2026-04-27 17:41 59.52206 144.94782 18050 ft 227 kts 269°
2026-04-27 17:41 59.52053 144.91726 18051 ft 227 kts 269°
2026-04-27 17:41 59.51897 144.88635 18050 ft 227 kts 269°
2026-04-27 17:41 59.51739 144.85546 18050 ft 227 kts 268°
2026-04-27 17:42 59.51582 144.82451 18051 ft 227 kts 269°
2026-04-27 17:42 59.51423 144.79351 18050 ft 227 kts 268°
2026-04-27 17:42 59.51264 144.76268 18050 ft 227 kts 268°
2026-04-27 17:42 59.51105 144.73177 18050 ft 227 kts 268°
2026-04-27 17:43 59.50944 144.70099 18047 ft 226 kts 268°
2026-04-27 17:43 59.50784 144.67022 18047 ft 226 kts 268°
2026-04-27 17:43 59.50624 144.63950 18048 ft 226 kts 268°
2026-04-27 17:43 59.50463 144.60876 18048 ft 226 kts 268°
2026-04-27 17:44 59.50300 144.57802 18050 ft 226 kts 268°
2026-04-27 17:44 59.50135 144.54730 18052 ft 226 kts 268°
2026-04-27 17:44 59.49973 144.51655 18051 ft 226 kts 268°
2026-04-27 17:44 59.49808 144.48588 18048 ft 225 kts 268°
2026-04-27 17:45 59.49643 144.45524 18048 ft 225 kts 268°
2026-04-27 17:45 59.49476 144.42455 18044 ft 225 kts 267°
2026-04-27 17:45 59.49310 144.39394 18049 ft 225 kts 268°
2026-04-27 17:45 59.49143 144.36334 18049 ft 225 kts 267°
2026-04-27 17:46 59.48975 144.33275 18048 ft 225 kts 267°
2026-04-27 17:46 59.48807 144.30211 18049 ft 225 kts 267°
2026-04-27 17:46 59.48638 144.27151 18047 ft 225 kts 267°
2026-04-27 17:46 59.48469 144.24095 18045 ft 225 kts 267°
2026-04-27 17:47 59.48297 144.21035 18045 ft 225 kts 267°
2026-04-27 17:47 59.48185 144.19014 18047 ft 225 kts 267°
2026-04-27 17:47 59.47956 144.14928 18048 ft 225 kts 267°
2026-04-27 17:47 59.47782 144.11873 18048 ft 225 kts 267°
2026-04-27 17:48 59.47609 144.08818 18051 ft 225 kts 267°
2026-04-27 17:48 59.47423 144.05752 18050 ft 225 kts 266°
2026-04-27 17:48 59.47237 144.02703 18050 ft 225 kts 266°
2026-04-27 17:48 59.47049 143.99637 18036 ft 225 kts 267°
2026-04-27 17:49 59.46864 143.96598 18049 ft 224 kts 268°
2026-04-27 17:49 59.46681 143.93605 18045 ft 223 kts 268°
2026-04-27 17:49 59.46494 143.90577 18045 ft 223 kts 268°
2026-04-27 17:49 59.46308 143.87561 18046 ft 222 kts 268°
2026-04-27 17:50 59.46119 143.84512 18048 ft 222 kts 268°
2026-04-27 17:50 59.45743 143.78483 18051 ft 222 kts 268°
2026-04-27 17:50 59.45555 143.75474 18051 ft 222 kts 268°
2026-04-27 17:51 59.45365 143.72457 18050 ft 222 kts 268°
2026-04-27 17:51 59.45177 143.69489 18051 ft 222 kts 268°
2026-04-27 17:51 59.44986 143.66475 18051 ft 222 kts 268°
2026-04-27 17:51 59.44794 143.63459 18051 ft 222 kts 268°
2026-04-27 17:52 59.44601 143.60444 18051 ft 222 kts 268°
2026-04-27 17:52 59.44408 143.57427 18049 ft 222 kts 267°
2026-04-27 17:52 59.44213 143.54365 17732 ft 234 kts 267°
2026-04-27 17:52 59.43946 143.51102 17154 ft 251 kts 256°
2026-04-27 17:53 59.42997 143.48141 16577 ft 267 kts 227°
2026-04-27 17:53 59.41429 143.46103 16028 ft 271 kts 218°
2026-04-27 17:53 59.40209 143.43369 15491 ft 265 kts 246°
2026-04-27 17:53 59.39830 143.39908 14963 ft 259 kts 275°
2026-04-27 17:54 59.40341 143.36670 14436 ft 239 kts 304°
2026-04-27 17:54 59.41523 143.34591 13895 ft 225 kts 333°
2026-04-27 17:54 59.42961 143.33492 13227 ft 219 kts 341°
2026-04-27 17:54 59.44395 143.32575 12566 ft 215 kts 342°
2026-04-27 17:55 59.45817 143.31677 11914 ft 213 kts 342°
2026-04-27 17:55 59.47221 143.30788 11277 ft 211 kts 342°
2026-04-27 17:55 59.48617 143.29901 10657 ft 210 kts 342°
2026-04-27 17:55 59.50003 143.29019 10051 ft 208 kts 342°
2026-04-27 17:56 59.51379 143.28139 9392 ft 207 kts 342°
2026-04-27 17:56 59.52747 143.27269 8734 ft 206 kts 341°
2026-04-27 17:56 59.53930 143.25765 8047 ft 207 kts 310°
2026-04-27 17:56 59.54469 143.23154 7237 ft 213 kts 276°
2026-04-27 17:57 59.54158 143.20311 6384 ft 217 kts 242°
2026-04-27 17:57 59.53124 143.18150 5510 ft 218 kts 219°
2026-04-27 17:57 59.51955 143.16269 4651 ft 216 kts 224°
2026-04-27 17:57 59.50981 143.14052 3786 ft 213 kts 234°
2026-04-27 17:58 59.50136 143.11703 2924 ft 208 kts 227°
2026-04-27 17:58 59.48986 143.10058 2183 ft 201 kts 206°
2026-04-27 17:58 59.47684 143.09213 1482 ft 193 kts 194°
2026-04-27 17:58 59.46439 143.08535 1037 ft 178 kts 195°
2026-04-27 17:59 59.45311 143.07926 797 ft 150 kts 195°
2026-04-27 17:59 59.44405 143.07449 597 ft 121 kts 195°
2026-04-27 17:59 59.43643 143.07045 435 ft 106 kts 195°
2026-04-27 17:59 59.42963 143.06689 307 ft 98 kts 195°
2026-04-27 18:00 59.42306 143.06355 197 ft 96 kts 195°
2026-04-27 18:00 59.41672 143.05999 76 ft 93 kts 195°
2026-04-27 18:00 59.41110 143.05702 63 ft 62 kts 194°
2026-04-27 18:00 59.40969 143.05634 65 ft 7 kts 256°
2026-04-27 18:01 59.41026 143.05642 64 ft 13 kts 23°
2026-04-27 18:01 59.41129 143.05707 63 ft 18 kts 15°
2026-04-27 18:01 59.41251 143.05771 63 ft 19 kts 14°
2026-04-27 18:01 59.41387 143.05842 63 ft 20 kts 14°
2026-04-27 18:02 59.41429 143.06001 65 ft 15 kts 104°
2026-04-27 18:02 59.41405 143.06188 65 ft 14 kts 103°
2026-04-27 18:02 59.41380 143.06370 65 ft 13 kts 104°
2026-04-27 18:02 59.41393 143.06464 65 ft 5 kts 10°
2026-04-27 18:03 59.41404 143.06469 65 ft 0 kts 13°